createdAt,value
2022-10-05T00:02:26.376Z,10.94
2022-10-05T00:04:55.799Z,10.80
2022-10-05T00:07:23.934Z,10.69
2022-10-05T00:09:57.357Z,10.61
2022-10-05T00:12:25.142Z,10.52
2022-10-05T00:14:55.258Z,10.34
2022-10-05T00:17:24.030Z,10.40
2022-10-05T00:19:52.715Z,10.43
2022-10-05T00:22:29.761Z,10.26
2022-10-05T00:24:59.929Z,10.27
2022-10-05T00:27:32.624Z,10.57
2022-10-05T00:30:02.618Z,10.50
2022-10-05T00:32:29.140Z,10.33
2022-10-05T00:34:57.141Z,10.42
2022-10-05T00:37:23.732Z,10.60
2022-10-05T00:39:50.317Z,10.84
2022-10-05T00:42:43.653Z,11.03
2022-10-05T00:45:20.553Z,11.15
2022-10-05T00:48:10.987Z,11.08
2022-10-05T00:50:54.658Z,10.86
2022-10-05T00:53:39.813Z,10.78
2022-10-05T00:56:09.352Z,10.52
2022-10-05T00:59:14.161Z,10.22
2022-10-05T01:01:54.813Z,10.35
2022-10-05T01:04:59.148Z,10.48
2022-10-05T01:07:25.745Z,10.11
2022-10-05T01:10:31.379Z,10.53
2022-10-05T01:13:25.095Z,10.62
2022-10-05T01:16:33.415Z,10.98
2022-10-05T01:19:44.329Z,11.08
2022-10-05T01:22:26.070Z,10.94
2022-10-05T01:25:18.879Z,10.73
2022-10-05T01:28:00.203Z,10.57
2022-10-05T01:30:28.497Z,10.51
2022-10-05T01:33:13.364Z,10.27
2022-10-05T01:35:54.618Z,10.27
2022-10-05T01:38:46.877Z,10.04
2022-10-05T01:41:25.429Z,10.11
2022-10-05T01:43:55.890Z,10.13
2022-10-05T01:46:24.441Z,10.24
2022-10-05T01:49:19.985Z,10.36
2022-10-05T01:52:31.448Z,10.45
2022-10-05T01:55:20.060Z,10.23
2022-10-05T01:58:13.587Z,10.22
2022-10-05T02:00:48.372Z,10.31
2022-10-05T02:03:24.559Z,10.32
2022-10-05T02:05:58.660Z,10.32
2022-10-05T02:08:43.211Z,10.25
2022-10-05T02:11:12.897Z,10.25
2022-10-05T02:14:01.254Z,10.23
2022-10-05T02:16:37.078Z,10.17
2022-10-05T02:19:14.479Z,10.04
2022-10-05T02:21:47.107Z,9.99
2022-10-05T02:24:21.535Z,10.08
2022-10-05T02:26:52.193Z,10.01
2022-10-05T02:29:22.186Z,10.17
2022-10-05T02:31:54.513Z,10.27
2022-10-05T02:34:29.672Z,10.40
2022-10-05T02:37:15.070Z,10.85
2022-10-05T02:40:05.035Z,10.90
2022-10-05T02:42:38.594Z,10.69
2022-10-05T02:45:28.039Z,10.68
2022-10-05T02:48:26.997Z,10.75
2022-10-05T02:51:11.715Z,10.82
2022-10-05T02:54:06.125Z,10.64
2022-10-05T02:56:58.827Z,10.67
2022-10-05T02:59:37.862Z,10.43
2022-10-05T03:02:21.127Z,10.38
2022-10-05T03:05:23.973Z,10.08
2022-10-05T03:08:02.754Z,10.13
2022-10-05T03:10:39.422Z,10.09
2022-10-05T03:13:27.815Z,10.00
2022-10-05T03:16:13.425Z,10.00
2022-10-05T03:18:52.479Z,10.04
2022-10-05T03:21:29.492Z,10.14
2022-10-05T03:24:20.899Z,10.01
2022-10-05T03:27:18.783Z,10.12
2022-10-05T03:30:02.596Z,10.03
2022-10-05T03:32:49.254Z,10.11
2022-10-05T03:35:42.494Z,10.60
2022-10-05T03:38:34.733Z,10.77
2022-10-05T03:41:05.289Z,10.84
2022-10-05T03:44:04.399Z,10.86
2022-10-05T03:46:47.140Z,11.02
2022-10-05T03:49:51.750Z,10.81
2022-10-05T03:52:50.253Z,10.98
2022-10-05T03:55:37.057Z,10.91
2022-10-05T03:58:14.197Z,10.98
2022-10-05T04:00:44.990Z,10.60
2022-10-05T04:03:38.410Z,10.80
2022-10-05T04:06:18.150Z,10.82
2022-10-05T04:08:56.536Z,10.72
2022-10-05T04:11:31.701Z,10.69
2022-10-05T04:14:07.178Z,10.57
2022-10-05T04:16:44.870Z,10.81
2022-10-05T04:19:32.569Z,10.49
2022-10-05T04:22:06.273Z,10.27
2022-10-05T04:24:41.861Z,10.60
2022-10-05T04:27:16.293Z,10.66
2022-10-05T04:29:51.530Z,10.77
2022-10-05T04:32:38.516Z,10.69
2022-10-05T04:35:25.489Z,10.47
2022-10-05T04:38:17.213Z,10.51
2022-10-05T04:41:02.913Z,10.18
2022-10-05T04:43:48.159Z,9.97
2022-10-05T04:46:38.290Z,9.95
2022-10-05T04:49:39.470Z,9.90
2022-10-05T04:52:22.627Z,9.94
2022-10-05T04:55:23.731Z,10.18
2022-10-05T04:58:07.714Z,9.98
2022-10-05T05:01:06.247Z,9.86
2022-10-05T05:03:45.030Z,9.69
2022-10-05T05:06:36.474Z,9.78
2022-10-05T05:09:09.393Z,9.83
2022-10-05T05:11:54.896Z,9.71
2022-10-05T05:14:21.888Z,9.63
2022-10-05T05:17:10.803Z,9.44
2022-10-05T05:20:13.642Z,9.47
2022-10-05T05:23:18.181Z,9.45
2022-10-05T05:26:11.030Z,9.50
2022-10-05T05:28:47.096Z,9.54
2022-10-05T05:31:38.294Z,9.68
2022-10-05T05:34:25.015Z,9.76
2022-10-05T05:37:01.993Z,9.78
2022-10-05T05:40:07.810Z,9.82
2022-10-05T05:42:45.122Z,9.90
2022-10-05T05:45:26.623Z,10.20
2022-10-05T05:47:54.983Z,10.20
2022-10-05T05:50:32.168Z,10.21
2022-10-05T05:53:13.684Z,10.50
2022-10-05T05:55:46.479Z,10.37
2022-10-05T05:58:25.158Z,10.39
2022-10-05T06:01:32.831Z,10.40
2022-10-05T06:04:14.704Z,10.35
2022-10-05T06:06:47.251Z,10.49
2022-10-05T06:09:31.162Z,10.31
2022-10-05T06:12:14.078Z,10.35
2022-10-05T06:14:47.988Z,10.45
2022-10-05T06:17:32.759Z,10.44
2022-10-05T06:20:05.324Z,10.44
2022-10-05T06:22:40.846Z,10.64
2022-10-05T06:25:13.629Z,10.87
2022-10-05T06:28:03.681Z,11.04
2022-10-05T06:30:54.927Z,11.15
2022-10-05T06:33:39.372Z,11.30
2022-10-05T06:36:32.776Z,11.34
2022-10-05T06:39:31.353Z,11.30
2022-10-05T06:42:14.724Z,11.27
2022-10-05T06:45:22.482Z,11.46
2022-10-05T06:48:30.492Z,11.54
2022-10-05T06:51:25.879Z,11.58
2022-10-05T06:54:27.718Z,11.56
2022-10-05T06:57:15.569Z,11.56
2022-10-05T07:00:01.899Z,11.59
2022-10-05T07:02:48.261Z,11.66
2022-10-05T07:05:52.360Z,11.74
2022-10-05T07:08:38.179Z,11.63
2022-10-05T07:11:11.174Z,11.69
2022-10-05T07:13:51.320Z,11.71
2022-10-05T07:16:30.202Z,11.70
2022-10-05T07:19:19.537Z,11.73
2022-10-05T07:22:17.026Z,11.82
2022-10-05T07:25:10.357Z,11.89
2022-10-05T07:28:03.564Z,12.06
2022-10-05T07:30:38.589Z,12.08
2022-10-05T07:33:20.664Z,12.17
2022-10-05T07:36:30.843Z,12.22
2022-10-05T07:39:06.707Z,12.35
2022-10-05T07:41:44.059Z,12.40
2022-10-05T07:44:22.534Z,12.48
2022-10-05T07:46:58.479Z,12.60
2022-10-05T07:49:59.505Z,12.79
2022-10-05T07:52:40.149Z,12.78
2022-10-05T07:55:36.898Z,12.77
2022-10-05T07:58:43.608Z,12.83
2022-10-05T08:01:20.776Z,12.96
2022-10-05T08:04:09.717Z,13.05
2022-10-05T08:07:01.727Z,13.06
2022-10-05T08:09:50.114Z,13.24
2022-10-05T08:12:50.935Z,13.52
2022-10-05T08:15:28.643Z,13.89
2022-10-05T08:18:02.440Z,14.10
2022-10-05T08:20:37.646Z,14.20
2022-10-05T08:23:04.109Z,14.32
2022-10-05T08:25:39.767Z,14.32
2022-10-05T08:28:24.256Z,14.50
2022-10-05T08:31:16.266Z,14.52
2022-10-05T08:34:15.722Z,14.50
2022-10-05T08:36:56.106Z,14.45
2022-10-05T08:39:29.531Z,14.57
2022-10-05T08:42:41.407Z,14.80
2022-10-05T08:45:21.140Z,15.00
2022-10-05T08:48:06.271Z,15.31
2022-10-05T08:50:38.845Z,15.21
2022-10-05T08:53:20.510Z,15.29
2022-10-05T08:55:46.860Z,15.41
2022-10-05T08:58:19.066Z,15.57
2022-10-05T09:00:56.612Z,15.67
2022-10-05T09:03:34.962Z,15.82
2022-10-05T09:06:29.377Z,15.88
2022-10-05T09:09:10.938Z,16.06
2022-10-05T09:12:08.936Z,16.23
2022-10-05T09:15:25.285Z,16.41
2022-10-05T09:18:31.246Z,16.59
2022-10-05T09:21:10.668Z,16.86
2022-10-05T09:23:46.261Z,16.86
2022-10-05T09:26:40.590Z,17.37
2022-10-05T09:29:31.943Z,17.83
2022-10-05T09:32:16.437Z,17.95
2022-10-05T09:34:57.932Z,17.78
2022-10-05T09:37:33.635Z,17.80
2022-10-05T09:40:22.017Z,18.13
2022-10-05T09:43:08.272Z,18.04
2022-10-05T09:46:06.885Z,18.05
2022-10-05T09:48:36.056Z,18.24
2022-10-05T09:51:23.214Z,18.61
2022-10-05T09:54:39.553Z,18.38
2022-10-05T09:57:30.967Z,18.67
2022-10-05T10:03:13.760Z,18.90
2022-10-05T10:06:23.275Z,19.02
2022-10-05T10:09:02.045Z,18.81
2022-10-05T10:11:28.551Z,18.85
2022-10-05T10:14:19.858Z,19.05
2022-10-05T10:17:17.389Z,19.47
2022-10-05T10:20:02.198Z,19.42
2022-10-05T10:22:50.075Z,19.40
2022-10-05T10:25:53.722Z,19.19
2022-10-05T10:29:03.515Z,19.46
2022-10-05T10:31:51.430Z,19.69
2022-10-05T10:34:39.938Z,19.74
2022-10-05T10:37:37.307Z,20.10
2022-10-05T10:40:30.973Z,19.93
2022-10-05T10:43:10.061Z,20.08
2022-10-05T10:45:56.278Z,20.09
2022-10-05T10:48:28.506Z,20.52
2022-10-05T10:51:17.679Z,20.46
2022-10-05T10:54:21.985Z,20.24
2022-10-05T10:57:06.066Z,20.32
2022-10-05T11:00:11.144Z,20.78
2022-10-05T11:02:51.164Z,21.07
2022-10-05T11:05:23.734Z,20.79
2022-10-05T11:08:15.664Z,21.12
2022-10-05T11:10:54.308Z,21.16
2022-10-05T11:13:52.731Z,20.97
2022-10-05T11:16:27.906Z,21.10
2022-10-05T11:19:16.018Z,21.26
2022-10-05T11:22:13.741Z,21.23
2022-10-05T11:24:58.556Z,21.61
2022-10-05T11:27:46.360Z,21.41
2022-10-05T11:30:52.187Z,21.36
2022-10-05T11:33:43.707Z,21.83
2022-10-05T11:36:47.505Z,21.78
2022-10-05T11:39:40.451Z,21.47
2022-10-05T11:42:17.627Z,21.57
2022-10-05T11:44:59.596Z,22.01
2022-10-05T11:47:36.856Z,22.12
2022-10-05T11:50:20.363Z,21.57
2022-10-05T11:53:06.002Z,21.79
2022-10-05T11:55:57.591Z,21.50
2022-10-05T11:58:33.626Z,21.78
2022-10-05T12:01:34.530Z,22.08
2022-10-05T12:04:19.857Z,21.90
2022-10-05T12:06:58.362Z,22.33
2022-10-05T12:10:06.017Z,21.85
2022-10-05T12:12:39.361Z,21.35
2022-10-05T12:15:25.840Z,21.63
2022-10-05T12:18:04.651Z,22.21
2022-10-05T12:21:00.350Z,22.33
2022-10-05T12:23:43.991Z,22.01
2022-10-05T12:26:15.946Z,22.30
2022-10-05T12:28:47.599Z,22.54
2022-10-05T12:31:20.987Z,22.07
2022-10-05T12:34:19.924Z,22.19
2022-10-05T12:37:05.825Z,22.25
2022-10-05T12:39:40.949Z,22.28
2022-10-05T12:42:42.047Z,22.38
2022-10-05T12:45:14.537Z,22.32
2022-10-05T12:47:53.615Z,22.24
2022-10-05T12:50:28.177Z,22.37
2022-10-05T12:53:09.514Z,22.43
2022-10-05T12:55:40.075Z,22.57
2022-10-05T12:58:18.606Z,22.34
2022-10-05T13:01:11.971Z,22.86
2022-10-05T13:03:52.202Z,22.61
2022-10-05T13:06:35.401Z,22.86
2022-10-05T13:09:17.512Z,22.72
2022-10-05T13:11:55.863Z,22.85
2022-10-05T13:14:45.325Z,23.14
2022-10-05T13:17:20.531Z,22.96
2022-10-05T13:19:56.392Z,22.83
2022-10-05T13:22:46.315Z,22.93
2022-10-05T13:25:56.893Z,22.78
2022-10-05T13:28:50.054Z,22.45
2022-10-05T13:31:27.641Z,22.49
2022-10-05T13:34:03.358Z,22.46
2022-10-05T13:36:48.749Z,22.76
2022-10-05T13:39:44.399Z,22.83
2022-10-05T13:42:32.796Z,23.04
2022-10-05T13:45:12.945Z,23.04
2022-10-05T13:48:18.162Z,22.98
2022-10-05T13:51:04.522Z,22.70
2022-10-05T13:53:48.106Z,22.83
2022-10-05T13:56:25.963Z,22.63
2022-10-05T13:59:15.905Z,22.50
2022-10-05T14:02:08.526Z,22.88
2022-10-05T14:04:57.854Z,22.87
2022-10-05T14:07:37.786Z,23.04
2022-10-05T14:10:11.505Z,23.19
2022-10-05T14:12:43.372Z,23.35
2022-10-05T14:15:19.873Z,23.46
2022-10-05T14:17:46.582Z,23.12
2022-10-05T14:20:24.633Z,23.19
2022-10-05T14:22:57.668Z,23.12
2022-10-05T14:25:24.286Z,23.40
2022-10-05T14:27:59.690Z,23.34
2022-10-05T14:30:28.899Z,23.48
2022-10-05T14:33:04.592Z,23.58
2022-10-05T14:35:37.171Z,23.62
2022-10-05T14:38:29.689Z,23.43
2022-10-05T14:41:07.945Z,23.81
2022-10-05T14:43:34.962Z,23.85
2022-10-05T14:46:14.668Z,23.67
2022-10-05T14:48:43.480Z,23.76
2022-10-05T14:51:12.845Z,23.91
2022-10-05T14:53:43.476Z,23.98
2022-10-05T14:56:29.864Z,24.04
2022-10-05T14:59:13.531Z,23.99
2022-10-05T15:01:58.857Z,23.90
2022-10-05T15:04:42.791Z,23.72
2022-10-05T15:07:11.205Z,23.88
2022-10-05T15:09:56.136Z,23.85
2022-10-05T15:12:29.257Z,23.75
2022-10-05T15:15:11.292Z,23.90
2022-10-05T15:17:52.554Z,23.98
2022-10-05T15:20:33.794Z,24.25
2022-10-05T15:23:12.852Z,24.13
2022-10-05T15:26:01.141Z,23.98
2022-10-05T15:28:48.303Z,24.00
2022-10-05T15:31:36.050Z,24.28
2022-10-05T15:34:16.371Z,24.12
2022-10-05T15:36:54.536Z,24.59
2022-10-05T15:39:38.068Z,24.72
2022-10-05T15:42:15.163Z,24.20
2022-10-05T15:44:57.398Z,24.39
2022-10-05T15:47:44.711Z,24.59
2022-10-05T15:50:32.826Z,24.72
2022-10-05T15:53:10.640Z,24.98
2022-10-05T15:55:55.682Z,24.80
2022-10-05T15:58:56.965Z,24.92
2022-10-05T16:01:29.908Z,24.99
2022-10-05T16:04:15.098Z,25.07
2022-10-05T16:07:06.232Z,25.15
2022-10-05T16:09:45.243Z,25.19
2022-10-05T16:12:22.167Z,25.04
2022-10-05T16:14:54.534Z,25.13
2022-10-05T16:17:21.104Z,25.03
2022-10-05T16:20:14.579Z,25.15
2022-10-05T16:23:17.652Z,24.94
2022-10-05T16:25:47.148Z,24.68
2022-10-05T16:28:13.669Z,24.59
2022-10-05T16:30:59.260Z,24.29
2022-10-05T16:33:54.307Z,24.32
2022-10-05T16:36:36.108Z,24.09
2022-10-05T16:39:25.739Z,23.78
2022-10-05T16:42:18.567Z,23.66
2022-10-05T16:44:58.145Z,23.45
2022-10-05T16:47:50.009Z,23.29
2022-10-05T16:50:49.510Z,23.24
2022-10-05T16:53:30.483Z,23.07
2022-10-05T16:56:01.538Z,22.03
2022-10-05T16:58:46.730Z,21.93
2022-10-05T17:01:31.779Z,22.40
2022-10-05T17:04:05.881Z,22.31
2022-10-05T17:06:54.053Z,21.44
2022-10-05T17:09:29.718Z,21.06
2022-10-05T17:12:14.011Z,21.48
2022-10-05T17:14:58.061Z,21.51
2022-10-05T17:17:51.829Z,21.27
2022-10-05T17:20:40.243Z,21.18
2022-10-05T17:23:30.253Z,21.06
2022-10-05T17:26:24.658Z,20.82
2022-10-05T17:28:51.169Z,21.01
2022-10-05T17:31:22.183Z,21.12
2022-10-05T17:34:07.125Z,21.10
2022-10-05T17:36:48.751Z,21.08
2022-10-05T17:39:20.097Z,20.79
2022-10-05T17:41:47.160Z,20.65
2022-10-05T17:44:15.882Z,20.72
2022-10-05T17:46:48.222Z,20.54
2022-10-05T17:50:12.353Z,20.25
2022-10-05T17:53:01.898Z,19.91
2022-10-05T17:55:31.527Z,19.52
2022-10-05T17:58:18.817Z,19.15
2022-10-05T18:01:06.921Z,19.14
2022-10-05T18:03:51.311Z,19.33
2022-10-05T18:06:24.291Z,19.47
2022-10-05T18:09:22.975Z,19.08
2022-10-05T18:11:55.551Z,18.75
2022-10-05T18:14:25.119Z,18.71
2022-10-05T18:17:03.822Z,18.76
2022-10-05T18:19:32.310Z,18.98
2022-10-05T18:22:23.668Z,18.83
2022-10-05T18:25:04.221Z,18.54
2022-10-05T18:27:39.530Z,18.70
2022-10-05T18:30:15.853Z,18.82
2022-10-05T18:32:42.486Z,18.83
2022-10-05T18:35:37.956Z,18.79
2022-10-05T18:38:25.217Z,18.81
2022-10-05T18:40:59.874Z,18.74
2022-10-05T18:43:37.214Z,18.61
2022-10-05T18:46:09.445Z,18.62
2022-10-05T18:48:57.569Z,18.61
2022-10-05T18:51:54.135Z,18.48
2022-10-05T18:54:43.158Z,18.67
2022-10-05T18:57:38.626Z,18.66
2022-10-05T19:00:16.247Z,18.54
2022-10-05T19:02:57.128Z,18.34
2022-10-05T19:05:48.046Z,18.20
2022-10-05T19:08:25.606Z,18.20
2022-10-05T19:11:19.838Z,18.18
2022-10-05T19:13:53.862Z,18.16
2022-10-05T19:16:28.224Z,18.10
2022-10-05T19:19:32.450Z,18.11
2022-10-05T19:22:09.401Z,18.31
2022-10-05T19:24:42.497Z,18.39
2022-10-05T19:27:37.270Z,18.11
2022-10-05T19:30:22.888Z,17.48
2022-10-05T19:33:22.637Z,17.69
2022-10-05T19:36:11.405Z,17.49
2022-10-05T19:39:00.756Z,17.43
2022-10-05T19:42:00.617Z,17.37
2022-10-05T19:44:47.459Z,17.44
2022-10-05T19:47:48.034Z,17.55
2022-10-05T19:50:23.721Z,17.38
2022-10-05T19:52:57.246Z,17.41
2022-10-05T19:55:34.612Z,17.38
2022-10-05T19:58:01.463Z,17.32
2022-10-05T20:00:33.938Z,17.48
2022-10-05T20:03:18.603Z,17.13
2022-10-05T20:05:45.728Z,17.16
2022-10-05T20:08:17.104Z,17.08
2022-10-05T20:10:44.512Z,17.27
2022-10-05T20:13:22.511Z,17.37
2022-10-05T20:16:27.753Z,17.11
2022-10-05T20:19:12.868Z,17.06
2022-10-05T20:21:42.319Z,17.05
2022-10-05T20:24:11.898Z,16.88
2022-10-05T20:27:04.345Z,16.86
2022-10-05T20:29:39.139Z,16.90
2022-10-05T20:32:12.223Z,16.91
2022-10-05T20:34:43.845Z,16.97
2022-10-05T20:37:13.281Z,16.88
2022-10-05T20:39:41.008Z,16.91
2022-10-05T20:42:08.769Z,16.90
2022-10-05T20:44:36.528Z,16.82
2022-10-05T20:47:03.893Z,16.68
2022-10-05T20:49:31.771Z,16.74
2022-10-05T20:51:58.888Z,16.77
2022-10-05T20:54:26.879Z,16.81
2022-10-05T20:56:55.657Z,16.92
2022-10-05T20:59:24.215Z,16.88
2022-10-05T21:01:51.631Z,16.77
2022-10-05T21:04:20.072Z,16.65
2022-10-05T21:06:46.874Z,16.71
2022-10-05T21:09:15.255Z,16.81
2022-10-05T21:11:42.508Z,16.98
2022-10-05T21:14:09.989Z,16.79
2022-10-05T21:16:38.086Z,16.76
2022-10-05T21:19:06.903Z,16.72
2022-10-05T21:21:33.443Z,16.75
2022-10-05T21:24:02.744Z,16.57
2022-10-05T21:26:30.009Z,16.39
2022-10-05T21:28:58.352Z,16.52
2022-10-05T21:31:25.724Z,16.46
2022-10-05T21:33:52.682Z,16.52
2022-10-05T21:36:23.821Z,16.56
2022-10-05T21:38:52.697Z,16.55
2022-10-05T21:41:19.970Z,16.42
2022-10-05T21:43:46.762Z,16.41
2022-10-05T21:46:18.454Z,16.42
2022-10-05T21:48:45.176Z,16.41
2022-10-05T21:51:16.896Z,16.43
2022-10-05T21:53:51.579Z,16.30
2022-10-05T21:56:21.572Z,16.28
2022-10-05T21:58:49.806Z,16.34
2022-10-05T22:01:22.428Z,16.24
2022-10-05T22:03:49.523Z,16.30
2022-10-05T22:06:18.924Z,16.20
2022-10-05T22:08:45.597Z,16.26
2022-10-05T22:11:15.803Z,16.34
2022-10-05T22:13:45.479Z,16.44
2022-10-05T22:16:13.584Z,16.34
2022-10-05T22:18:40.473Z,16.32
2022-10-05T22:21:09.164Z,16.29
2022-10-05T22:23:35.948Z,16.35
2022-10-05T22:26:03.927Z,16.38
2022-10-05T22:28:32.140Z,16.39
2022-10-05T22:31:03.130Z,16.42
2022-10-05T22:33:29.750Z,16.42
2022-10-05T22:35:59.249Z,16.31
2022-10-05T22:38:27.124Z,16.31
2022-10-05T22:40:53.930Z,16.29
2022-10-05T22:43:20.454Z,16.40
2022-10-05T22:45:47.041Z,16.21
2022-10-05T22:48:13.762Z,16.22
2022-10-05T22:50:40.314Z,16.07
2022-10-05T22:53:06.859Z,16.09
2022-10-05T22:55:33.433Z,16.05
2022-10-05T22:58:01.260Z,16.03
2022-10-05T23:00:46.483Z,16.01
2022-10-05T23:03:15.657Z,15.93
2022-10-05T23:05:42.309Z,16.00
2022-10-05T23:08:08.855Z,15.97
2022-10-05T23:10:35.481Z,15.85
2022-10-05T23:13:02.591Z,15.80
2022-10-05T23:15:29.195Z,15.85
2022-10-05T23:17:58.333Z,15.89
2022-10-05T23:20:24.859Z,15.78
2022-10-05T23:22:51.555Z,15.82
2022-10-05T23:25:18.791Z,15.83
2022-10-05T23:27:45.329Z,15.88
2022-10-05T23:30:12.796Z,15.72
2022-10-05T23:32:44.340Z,15.59
2022-10-05T23:35:12.980Z,15.46
2022-10-05T23:37:41.388Z,15.59
2022-10-05T23:40:11.665Z,15.59
2022-10-05T23:42:41.719Z,15.53
2022-10-05T23:45:10.300Z,15.41
2022-10-05T23:47:37.306Z,15.49
2022-10-05T23:50:06.896Z,15.52
2022-10-05T23:52:34.410Z,15.26
2022-10-05T23:55:02.008Z,15.24
2022-10-05T23:57:28.562Z,15.29
2022-10-05T23:59:56.205Z,15.29
